Time;durP1;ratioP1;P1;durP2;ratioP2;P2;SDS_P1;SDS_P2;PMS_P1;PMS_P2;Temp;Humidity;BMP_temperature;BMP_pressure;BME280_temperature;BME280_humidity;BME280_pressure;Samples;Min_cycle;Max_cycle;Signal;HPM_P1;HPM_P2
2023/09/08 00:02:27;;;;;;;6.38;4.10;;;;;;;;;;5020401;28;20180;-73
2023/09/08 00:04:53;;;;;;;5.07;3.58;;;;;;;;;;5036457;28;20550;-74
2023/09/08 00:07:19;;;;;;;4.75;4.20;;;;;;;;;;5038643;28;20049;-73
2023/09/08 00:09:45;;;;;;;4.40;3.65;;;;;;;;;;5022682;28;20530;-71
2023/09/08 00:12:10;;;;;;;5.00;3.88;;;;;;;;;;5029087;28;20068;-73
2023/09/08 00:14:35;;;;;;;5.53;3.75;;;;;;;;;;5029232;28;20045;-73
2023/09/08 00:17:01;;;;;;;4.03;3.63;;;;;;;;;;5022571;28;20985;-73
2023/09/08 00:19:27;;;;;;;6.65;3.70;;;;;;;;;;5036717;28;20056;-73
2023/09/08 00:21:52;;;;;;;5.85;3.65;;;;;;;;;;5036552;28;20115;-74
2023/09/08 00:24:18;;;;;;;4.00;3.25;;;;;;;;;;5035522;28;20122;-73
2023/09/08 00:26:44;;;;;;;4.93;3.92;;;;;;;;;;5037225;28;20178;-74
2023/09/08 00:29:09;;;;;;;5.35;3.85;;;;;;;;;;5028281;28;20132;-74
2023/09/08 00:31:34;;;;;;;5.13;3.67;;;;;;;;;;5020773;28;20049;-73
2023/09/08 00:34:00;;;;;;;5.72;3.92;;;;;;;;;;5044141;28;20136;-73
2023/09/08 00:36:25;;;;;;;5.47;3.97;;;;;;;;;;5024038;28;20049;-75
2023/09/08 00:38:51;;;;;;;6.18;4.10;;;;;;;;;;5019671;28;20056;-73
2023/09/08 00:41:16;;;;;;;4.35;3.95;;;;;;;;;;5034364;28;20052;-74
2023/09/08 00:43:42;;;;;;;4.15;3.70;;;;;;;;;;5036130;28;20056;-73
2023/09/08 00:46:08;;;;;;;5.35;3.75;;;;;;;;;;5034493;28;20054;-74
2023/09/08 00:48:34;;;;;;;5.88;4.10;;;;;;;;;;5035688;28;20494;-73
2023/09/08 00:51:00;;;;;;;5.65;3.53;;;;;;;;;;5034297;28;20136;-72
2023/09/08 00:53:26;;;;;;;5.60;4.07;;;;;;;;;;5027018;28;20132;-74
2023/09/08 00:55:54;;;;;;;10.45;3.72;;;;;;;;;;5034934;28;20056;-73
2023/09/08 00:58:19;;;;;;;5.80;4.00;;;;;;;;;;5038112;28;20053;-75
2023/09/08 01:00:45;;;;;;;5.43;4.43;;;;;;;;;;5021171;28;20033;-72
2023/09/08 01:03:13;;;;;;;4.95;4.20;;;;;;;;;;5035303;28;20061;-74
2023/09/08 01:05:39;;;;;;;6.85;4.15;;;;;;;;;;5022375;28;20413;-72
2023/09/08 01:08:05;;;;;;;4.55;3.97;;;;;;;;;;5024791;28;20106;-74
2023/09/08 01:10:31;;;;;;;10.82;3.78;;;;;;;;;;5016779;28;20045;-75
2023/09/08 01:12:56;;;;;;;7.07;4.28;;;;;;;;;;5037232;28;20383;-74
2023/09/08 01:15:21;;;;;;;6.43;4.32;;;;;;;;;;5032536;28;20076;-73
2023/09/08 01:17:47;;;;;;;12.43;4.68;;;;;;;;;;5020379;28;20077;-72
2023/09/08 01:20:16;;;;;;;7.22;4.90;;;;;;;;;;5024510;28;20078;-73
2023/09/08 01:23:14;;;;;;;8.55;4.78;;;;;;;;;;5023056;28;20049;-73
2023/09/08 01:26:13;;;;;;;9.98;5.03;;;;;;;;;;4995996;28;20067;-73
2023/09/08 01:28:40;;;;;;;5.78;4.35;;;;;;;;;;5015439;28;20659;-73
2023/09/08 01:31:07;;;;;;;7.47;4.85;;;;;;;;;;5033873;28;20553;-74
2023/09/08 01:33:33;;;;;;;7.10;4.70;;;;;;;;;;5025675;28;20055;-72
2023/09/08 01:35:59;;;;;;;6.30;4.70;;;;;;;;;;5034475;28;20041;-73
2023/09/08 01:38:25;;;;;;;5.13;4.30;;;;;;;;;;5019595;28;20619;-74
2023/09/08 01:40:51;;;;;;;6.55;4.43;;;;;;;;;;5036873;28;20045;-73
2023/09/08 01:43:17;;;;;;;6.03;4.60;;;;;;;;;;5023737;28;20586;-73
2023/09/08 01:45:44;;;;;;;6.70;4.85;;;;;;;;;;5035697;28;21047;-74
2023/09/08 01:48:09;;;;;;;8.27;5.30;;;;;;;;;;5037417;28;20040;-73
2023/09/08 01:50:35;;;;;;;8.48;5.25;;;;;;;;;;5037442;28;20053;-73
2023/09/08 01:53:00;;;;;;;16.20;5.30;;;;;;;;;;5017167;28;20049;-73
2023/09/08 01:55:27;;;;;;;8.73;5.32;;;;;;;;;;5037208;28;20047;-74
2023/09/08 01:57:53;;;;;;;6.80;5.10;;;;;;;;;;5035063;28;20048;-73
2023/09/08 02:00:18;;;;;;;6.53;5.57;;;;;;;;;;5034750;28;20143;-73
2023/09/08 02:02:44;;;;;;;8.25;5.63;;;;;;;;;;5018938;28;20076;-73
2023/09/08 02:05:09;;;;;;;6.60;5.25;;;;;;;;;;5016654;28;20049;-73
2023/09/08 02:07:35;;;;;;;7.30;5.07;;;;;;;;;;5036777;28;20052;-75
2023/09/08 02:10:00;;;;;;;5.75;4.68;;;;;;;;;;5018264;28;20049;-74
2023/09/08 02:12:26;;;;;;;7.38;5.20;;;;;;;;;;5037135;28;20056;-76
2023/09/08 02:14:51;;;;;;;7.93;5.63;;;;;;;;;;5020861;28;20110;-73
2023/09/08 02:17:17;;;;;;;6.25;4.80;;;;;;;;;;5032813;28;20133;-75
2023/09/08 02:19:43;;;;;;;7.90;5.75;;;;;;;;;;5036178;28;20897;-73
2023/09/08 02:22:09;;;;;;;6.95;5.47;;;;;;;;;;5022830;28;20095;-73
2023/09/08 02:24:34;;;;;;;6.15;4.78;;;;;;;;;;5036919;28;20052;-74
2023/09/08 02:27:00;;;;;;;8.43;5.00;;;;;;;;;;5017248;28;20545;-73
2023/09/08 02:29:25;;;;;;;6.60;5.32;;;;;;;;;;5036564;28;20049;-75
2023/09/08 02:31:51;;;;;;;5.57;4.70;;;;;;;;;;5033511;28;20538;-73
2023/09/08 02:34:17;;;;;;;6.70;4.90;;;;;;;;;;5036521;28;20041;-73
2023/09/08 02:36:42;;;;;;;7.10;5.22;;;;;;;;;;5033073;28;20049;-74
2023/09/08 02:39:08;;;;;;;10.60;5.80;;;;;;;;;;5027040;28;20051;-74
2023/09/08 02:41:34;;;;;;;7.40;4.90;;;;;;;;;;5021739;28;20072;-73
2023/09/08 02:44:00;;;;;;;6.22;4.95;;;;;;;;;;5017680;28;20045;-72
2023/09/08 02:46:25;;;;;;;7.03;5.50;;;;;;;;;;5032463;28;20060;-74
2023/09/08 02:48:52;;;;;;;8.50;5.57;;;;;;;;;;5035705;28;20045;-73
2023/09/08 02:51:18;;;;;;;7.15;5.38;;;;;;;;;;5022815;28;20050;-74
2023/09/08 02:53:43;;;;;;;6.93;5.30;;;;;;;;;;5034801;28;20102;-73
2023/09/08 02:56:09;;;;;;;6.85;5.35;;;;;;;;;;5033187;28;20146;-73
2023/09/08 02:58:35;;;;;;;10.07;5.63;;;;;;;;;;5033515;28;20057;-72
2023/09/08 03:01:22;;;;;;;8.43;6.28;;;;;;;;;;5034948;28;20052;-72
2023/09/08 03:03:48;;;;;;;7.78;5.63;;;;;;;;;;5023324;28;20880;-74
2023/09/08 03:06:15;;;;;;;7.45;5.38;;;;;;;;;;5039050;28;20078;-73
2023/09/08 03:08:41;;;;;;;7.40;5.88;;;;;;;;;;5028433;28;20522;-75
2023/09/08 03:11:08;;;;;;;8.45;6.15;;;;;;;;;;5027900;28;20493;-73
2023/09/08 03:13:35;;;;;;;7.55;6.15;;;;;;;;;;5037041;28;20620;-74
2023/09/08 03:16:08;;;;;;;8.93;5.82;;;;;;;;;;5040031;28;20042;-72
2023/09/08 03:18:36;;;;;;;8.00;6.13;;;;;;;;;;5033054;28;20079;-73
2023/09/08 03:21:08;;;;;;;7.85;6.55;;;;;;;;;;5036526;28;20144;-74
2023/09/08 03:23:36;;;;;;;7.80;6.20;;;;;;;;;;5046350;28;20056;-74
2023/09/08 03:26:02;;;;;;;7.85;6.15;;;;;;;;;;5035780;28;20060;-73
2023/09/08 03:28:27;;;;;;;8.50;6.05;;;;;;;;;;5035765;28;20064;-73
2023/09/08 03:30:53;;;;;;;8.68;6.13;;;;;;;;;;5023393;28;20048;-73
2023/09/08 03:33:18;;;;;;;10.25;6.28;;;;;;;;;;5025753;28;20103;-75
2023/09/08 03:35:44;;;;;;;8.77;6.43;;;;;;;;;;5023251;28;20045;-73
2023/09/08 03:38:10;;;;;;;8.80;6.38;;;;;;;;;;5035193;28;20043;-73
2023/09/08 03:40:36;;;;;;;9.55;6.18;;;;;;;;;;5036524;28;20046;-74
2023/09/08 03:43:01;;;;;;;8.30;6.57;;;;;;;;;;5030900;28;20056;-74
2023/09/08 03:45:27;;;;;;;10.13;5.45;;;;;;;;;;5019971;28;20625;-74
2023/09/08 03:47:52;;;;;;;9.15;6.10;;;;;;;;;;5036328;28;20053;-74
2023/09/08 03:50:17;;;;;;;8.68;6.68;;;;;;;;;;5031689;28;20127;-73
2023/09/08 03:52:43;;;;;;;9.32;5.60;;;;;;;;;;5035857;28;20040;-73
2023/09/08 03:55:08;;;;;;;7.78;5.70;;;;;;;;;;5027273;28;20049;-73
2023/09/08 03:57:34;;;;;;;9.27;6.28;;;;;;;;;;5039319;28;20041;-74
2023/09/08 03:59:59;;;;;;;8.63;6.15;;;;;;;;;;5023909;28;20052;-73
2023/09/08 04:02:25;;;;;;;7.63;5.80;;;;;;;;;;5021550;28;20503;-73
2023/09/08 04:04:50;;;;;;;9.00;6.18;;;;;;;;;;5038116;28;20063;-74
2023/09/08 04:07:16;;;;;;;9.60;5.95;;;;;;;;;;5021342;28;20060;-73
2023/09/08 04:09:42;;;;;;;8.93;6.05;;;;;;;;;;5021981;28;20048;-73
2023/09/08 04:12:09;;;;;;;7.93;6.40;;;;;;;;;;5029963;28;20168;-73
2023/09/08 04:14:36;;;;;;;7.22;5.32;;;;;;;;;;5035093;28;20176;-73
2023/09/08 04:17:02;;;;;;;11.07;6.25;;;;;;;;;;5037420;28;20540;-74
2023/09/08 04:19:27;;;;;;;8.18;5.72;;;;;;;;;;5019221;28;20049;-74
2023/09/08 04:21:53;;;;;;;9.40;5.53;;;;;;;;;;5034129;28;20098;-73
2023/09/08 04:24:19;;;;;;;7.95;6.43;;;;;;;;;;5029343;28;20135;-73
2023/09/08 04:26:45;;;;;;;11.57;7.03;;;;;;;;;;5024934;28;20057;-74
2023/09/08 04:29:11;;;;;;;11.13;5.95;;;;;;;;;;5035990;28;20087;-72
2023/09/08 04:31:37;;;;;;;7.55;6.25;;;;;;;;;;5036179;28;20965;-74
2023/09/08 04:34:02;;;;;;;7.15;5.88;;;;;;;;;;5019111;28;20558;-72
2023/09/08 04:36:29;;;;;;;7.15;5.45;;;;;;;;;;5039286;28;20057;-73
2023/09/08 04:38:55;;;;;;;8.57;6.13;;;;;;;;;;5021815;28;20080;-71
2023/09/08 04:41:20;;;;;;;13.90;5.63;;;;;;;;;;5045528;28;20068;-73
2023/09/08 04:43:46;;;;;;;9.02;6.35;;;;;;;;;;5020455;28;20120;-72
2023/09/08 04:46:12;;;;;;;9.40;6.55;;;;;;;;;;5035008;28;20057;-72
2023/09/08 04:48:37;;;;;;;12.13;6.47;;;;;;;;;;5018017;28;20049;-71
2023/09/08 04:51:03;;;;;;;8.23;6.32;;;;;;;;;;5038287;28;20068;-72
2023/09/08 04:53:28;;;;;;;7.90;6.25;;;;;;;;;;5020776;28;20124;-73
2023/09/08 04:55:54;;;;;;;9.98;7.13;;;;;;;;;;5018114;28;20041;-73
2023/09/08 04:58:19;;;;;;;11.02;7.35;;;;;;;;;;5035833;28;20640;-71
2023/09/08 05:00:45;;;;;;;11.35;6.95;;;;;;;;;;5036164;28;20036;-71
2023/09/08 05:03:11;;;;;;;9.95;6.97;;;;;;;;;;5018177;28;20103;-73
2023/09/08 05:05:38;;;;;;;9.80;6.80;;;;;;;;;;5032803;28;20980;-71
2023/09/08 05:08:04;;;;;;;9.48;7.03;;;;;;;;;;5034034;28;20102;-71
2023/09/08 05:10:29;;;;;;;7.95;6.47;;;;;;;;;;5018258;28;20037;-69
2023/09/08 05:12:55;;;;;;;8.75;6.78;;;;;;;;;;5034046;28;20124;-71
2023/09/08 05:15:21;;;;;;;8.18;6.25;;;;;;;;;;5031750;28;20052;-71
2023/09/08 05:17:50;;;;;;;8.55;6.60;;;;;;;;;;5034365;28;20044;-69
2023/09/08 05:20:18;;;;;;;9.88;6.55;;;;;;;;;;5035477;28;20045;-70
2023/09/08 05:22:44;;;;;;;9.38;6.78;;;;;;;;;;5035443;28;20071;-69
2023/09/08 05:25:11;;;;;;;9.13;7.18;;;;;;;;;;5022429;28;20144;-69
2023/09/08 05:27:37;;;;;;;7.72;6.28;;;;;;;;;;5020214;28;21163;-70
2023/09/08 05:30:04;;;;;;;8.93;6.15;;;;;;;;;;5035376;28;20052;-69
2023/09/08 05:32:31;;;;;;;7.25;5.85;;;;;;;;;;5018429;28;20069;-69
2023/09/08 05:34:57;;;;;;;9.80;5.93;;;;;;;;;;5028663;28;20102;-70
2023/09/08 05:37:23;;;;;;;7.95;5.45;;;;;;;;;;5033111;28;20041;-71
2023/09/08 05:39:48;;;;;;;6.43;5.03;;;;;;;;;;5027056;28;20059;-71
2023/09/08 05:42:13;;;;;;;6.03;5.32;;;;;;;;;;5031309;28;20048;-71
2023/09/08 05:44:40;;;;;;;7.30;5.07;;;;;;;;;;5043978;28;20533;-70
2023/09/08 05:47:05;;;;;;;6.35;4.85;;;;;;;;;;5018140;28;20076;-72
2023/09/08 05:49:31;;;;;;;6.68;5.32;;;;;;;;;;5021682;28;20133;-73
2023/09/08 05:51:56;;;;;;;8.68;5.43;;;;;;;;;;5036343;28;20052;-73
2023/09/08 05:54:21;;;;;;;9.05;5.28;;;;;;;;;;5030352;28;20087;-72
2023/09/08 05:56:47;;;;;;;7.72;5.18;;;;;;;;;;5033789;28;20921;-71
2023/09/08 05:59:12;;;;;;;11.27;5.40;;;;;;;;;;5018544;28;20037;-73
2023/09/08 06:01:39;;;;;;;6.57;4.97;;;;;;;;;;5031741;28;20103;-72
2023/09/08 06:04:07;;;;;;;6.95;5.55;;;;;;;;;;5017815;28;20060;-71
2023/09/08 06:06:33;;;;;;;6.90;5.10;;;;;;;;;;5030206;28;20158;-69
2023/09/08 06:08:59;;;;;;;6.00;4.70;;;;;;;;;;5020031;28;20144;-69
2023/09/08 06:11:25;;;;;;;6.60;4.22;;;;;;;;;;5022234;28;20156;-69
2023/09/08 06:13:52;;;;;;;4.93;4.38;;;;;;;;;;5034644;28;20470;-70
2023/09/08 06:16:18;;;;;;;5.22;4.72;;;;;;;;;;5034164;28;20114;-70
2023/09/08 06:18:44;;;;;;;7.03;4.93;;;;;;;;;;5028268;28;20830;-68
2023/09/08 06:21:13;;;;;;;7.55;4.82;;;;;;;;;;5032065;28;20045;-71
2023/09/08 06:23:39;;;;;;;8.35;5.15;;;;;;;;;;5039716;28;20053;-70
2023/09/08 06:26:05;;;;;;;6.63;4.78;;;;;;;;;;5018442;28;20045;-70
2023/09/08 06:28:32;;;;;;;5.90;5.15;;;;;;;;;;5031112;28;20041;-72
2023/09/08 06:30:59;;;;;;;7.20;4.68;;;;;;;;;;5035420;28;20048;-72
2023/09/08 06:33:24;;;;;;;7.10;4.40;;;;;;;;;;5034760;28;20615;-69
2023/09/08 06:35:50;;;;;;;7.68;4.80;;;;;;;;;;5019180;28;20057;-69
2023/09/08 06:38:16;;;;;;;7.53;4.72;;;;;;;;;;5035217;28;20049;-69
2023/09/08 06:40:41;;;;;;;5.88;4.78;;;;;;;;;;5039028;28;20797;-71
2023/09/08 06:43:07;;;;;;;8.02;4.90;;;;;;;;;;5026472;28;20045;-71
2023/09/08 06:45:47;;;;;;;7.97;5.43;;;;;;;;;;5044106;28;20041;-69
2023/09/08 06:48:13;;;;;;;6.53;5.10;;;;;;;;;;5020165;28;20462;-71
2023/09/08 06:50:38;;;;;;;8.55;5.00;;;;;;;;;;5038801;28;20056;-70
2023/09/08 06:53:04;;;;;;;10.27;4.88;;;;;;;;;;5026173;28;20107;-69
2023/09/08 06:55:29;;;;;;;5.38;4.88;;;;;;;;;;5034703;28;20060;-69
2023/09/08 06:57:55;;;;;;;5.35;4.68;;;;;;;;;;5039364;28;20152;-70
2023/09/08 07:00:20;;;;;;;7.53;5.35;;;;;;;;;;5049553;28;20920;-71
2023/09/08 07:02:46;;;;;;;6.55;5.07;;;;;;;;;;5040312;28;20045;-70
2023/09/08 07:05:12;;;;;;;5.55;4.95;;;;;;;;;;5035496;28;20071;-69
2023/09/08 07:07:37;;;;;;;7.85;4.65;;;;;;;;;;5025874;28;20131;-68
2023/09/08 07:10:04;;;;;;;6.53;5.07;;;;;;;;;;5022524;28;21009;-70
2023/09/08 07:12:30;;;;;;;9.40;5.22;;;;;;;;;;5025924;28;20041;-69
2023/09/08 07:14:56;;;;;;;5.97;5.13;;;;;;;;;;5035132;28;20063;-69
2023/09/08 07:17:23;;;;;;;9.35;5.50;;;;;;;;;;5033790;28;20069;-70
2023/09/08 07:19:51;;;;;;;5.85;4.85;;;;;;;;;;5032880;28;20041;-69
2023/09/08 07:22:17;;;;;;;6.07;5.35;;;;;;;;;;5027658;28;20387;-69
2023/09/08 07:24:44;;;;;;;6.28;4.70;;;;;;;;;;5036432;28;20648;-70
2023/09/08 07:27:10;;;;;;;8.82;4.82;;;;;;;;;;5033125;28;20098;-70
2023/09/08 07:29:35;;;;;;;6.32;4.60;;;;;;;;;;5036861;28;20552;-71
2023/09/08 07:32:01;;;;;;;5.90;4.97;;;;;;;;;;5034827;28;20048;-72
2023/09/08 07:34:26;;;;;;;7.40;4.57;;;;;;;;;;5004795;28;20045;-74
2023/09/08 07:36:52;;;;;;;11.43;4.97;;;;;;;;;;5033771;28;20144;-72
2023/09/08 07:39:18;;;;;;;5.80;4.38;;;;;;;;;;5036631;28;20037;-71
2023/09/08 07:41:43;;;;;;;6.15;4.95;;;;;;;;;;5021349;28;20041;-70
2023/09/08 07:44:12;;;;;;;7.00;4.55;;;;;;;;;;5041629;28;20063;-70
2023/09/08 07:46:37;;;;;;;5.22;4.38;;;;;;;;;;5037359;28;20045;-70
2023/09/08 07:49:03;;;;;;;6.15;4.45;;;;;;;;;;5021128;28;20110;-71
2023/09/08 07:51:28;;;;;;;5.72;4.57;;;;;;;;;;5026210;28;20068;-70
2023/09/08 07:53:54;;;;;;;9.35;4.38;;;;;;;;;;5027936;28;20095;-71
2023/09/08 07:56:19;;;;;;;6.20;4.47;;;;;;;;;;5020998;28;20162;-71
2023/09/08 07:58:45;;;;;;;5.32;4.20;;;;;;;;;;5022208;28;21246;-72
2023/09/08 08:01:12;;;;;;;6.93;4.47;;;;;;;;;;5022501;28;20045;-69
2023/09/08 08:03:37;;;;;;;7.38;4.80;;;;;;;;;;5034890;28;20139;-69
2023/09/08 08:06:03;;;;;;;8.23;4.60;;;;;;;;;;5022613;28;20064;-69
2023/09/08 08:08:28;;;;;;;5.57;4.38;;;;;;;;;;5022478;28;21142;-68
2023/09/08 08:10:54;;;;;;;6.82;4.32;;;;;;;;;;5021425;28;20379;-69
2023/09/08 08:13:19;;;;;;;7.50;4.35;;;;;;;;;;5021445;28;20084;-69
2023/09/08 08:15:48;;;;;;;7.43;4.38;;;;;;;;;;5025474;28;20037;-71
2023/09/08 08:18:13;;;;;;;6.47;4.40;;;;;;;;;;5035921;28;20041;-68
2023/09/08 08:20:39;;;;;;;4.78;4.30;;;;;;;;;;5027234;28;20575;-70
2023/09/08 08:23:06;;;;;;;6.78;4.15;;;;;;;;;;5036753;28;20052;-71
2023/09/08 08:25:32;;;;;;;7.15;4.18;;;;;;;;;;5022108;28;20077;-70
2023/09/08 08:27:59;;;;;;;5.93;4.05;;;;;;;;;;5021731;28;20524;-70
2023/09/08 08:30:25;;;;;;;5.18;4.40;;;;;;;;;;5021444;28;20037;-70
2023/09/08 08:32:51;;;;;;;4.82;4.25;;;;;;;;;;5028322;28;20444;-71
2023/09/08 08:35:17;;;;;;;4.65;4.05;;;;;;;;;;5021784;28;20146;-71
2023/09/08 08:37:43;;;;;;;6.10;4.55;;;;;;;;;;5022450;28;20041;-71
2023/09/08 08:40:12;;;;;;;4.45;4.05;;;;;;;;;;5023079;28;20053;-70
2023/09/08 08:42:38;;;;;;;5.15;3.92;;;;;;;;;;5021921;28;20048;-70
2023/09/08 08:45:05;;;;;;;5.10;3.67;;;;;;;;;;5020266;28;20045;-71
2023/09/08 08:47:31;;;;;;;5.30;4.13;;;;;;;;;;5021961;28;20053;-71
2023/09/08 08:50:00;;;;;;;5.05;4.25;;;;;;;;;;5021544;28;20573;-70
2023/09/08 08:52:27;;;;;;;6.05;4.13;;;;;;;;;;5027004;28;20044;-70
2023/09/08 08:54:54;;;;;;;6.05;4.32;;;;;;;;;;5024655;28;20052;-69
2023/09/08 08:57:24;;;;;;;4.80;4.30;;;;;;;;;;5018912;28;20506;-71
2023/09/08 08:59:51;;;;;;;7.13;4.43;;;;;;;;;;5026175;28;20130;-72
2023/09/08 09:02:17;;;;;;;4.40;3.85;;;;;;;;;;5021436;28;20069;-70
2023/09/08 09:04:43;;;;;;;5.10;4.47;;;;;;;;;;5035505;28;20183;-71
2023/09/08 09:07:10;;;;;;;7.50;4.05;;;;;;;;;;5025737;28;20059;-71
2023/09/08 09:09:35;;;;;;;5.65;4.32;;;;;;;;;;5031109;28;20104;-72
2023/09/08 09:12:02;;;;;;;6.75;4.18;;;;;;;;;;5032784;28;20270;-71
2023/09/08 09:14:32;;;;;;;5.97;5.00;;;;;;;;;;5035016;28;20037;-71
2023/09/08 09:16:57;;;;;;;5.70;5.13;;;;;;;;;;5028571;28;20044;-72
2023/09/08 09:19:31;;;;;;;6.97;4.32;;;;;;;;;;5030374;28;20056;-71
2023/09/08 09:21:58;;;;;;;6.20;4.45;;;;;;;;;;5026340;28;20060;-70
2023/09/08 09:24:29;;;;;;;6.82;4.53;;;;;;;;;;5028274;28;20379;-70
2023/09/08 09:26:55;;;;;;;4.70;4.30;;;;;;;;;;5014591;28;20050;-71
2023/09/08 09:29:21;;;;;;;6.50;5.15;;;;;;;;;;5021821;28;20305;-72
2023/09/08 09:31:53;;;;;;;5.70;4.07;;;;;;;;;;5035438;28;20061;-72
2023/09/08 09:34:20;;;;;;;6.35;4.68;;;;;;;;;;5017894;28;20041;-69
2023/09/08 09:36:49;;;;;;;6.13;4.50;;;;;;;;;;5018169;28;20045;-70
2023/09/08 09:39:22;;;;;;;5.80;4.35;;;;;;;;;;5029971;28;20517;-69
2023/09/08 09:41:48;;;;;;;6.45;4.70;;;;;;;;;;5032624;28;20060;-71
2023/09/08 09:44:14;;;;;;;6.82;4.55;;;;;;;;;;5024370;28;20552;-71
2023/09/08 09:46:51;;;;;;;8.70;5.38;;;;;;;;;;5018695;28;20057;-69
2023/09/08 09:49:17;;;;;;;5.00;4.55;;;;;;;;;;5016184;28;20049;-69
2023/09/08 09:51:44;;;;;;;6.88;4.38;;;;;;;;;;5030769;28;20049;-71
2023/09/08 09:54:11;;;;;;;7.13;4.70;;;;;;;;;;5017391;28;20073;-71
2023/09/08 09:56:39;;;;;;;5.65;4.68;;;;;;;;;;5020123;28;20640;-72
2023/09/08 09:59:05;;;;;;;5.45;4.88;;;;;;;;;;5018461;28;20053;-72
2023/09/08 10:01:32;;;;;;;8.27;4.38;;;;;;;;;;5018965;28;20084;-71
2023/09/08 10:03:58;;;;;;;7.00;4.60;;;;;;;;;;5025506;28;20119;-71
2023/09/08 10:06:25;;;;;;;5.28;4.75;;;;;;;;;;5023877;28;20103;-71
2023/09/08 10:08:51;;;;;;;5.93;4.05;;;;;;;;;;5021781;28;20520;-71
2023/09/08 10:11:21;;;;;;;5.93;5.22;;;;;;;;;;5020355;28;20045;-71
2023/09/08 10:13:48;;;;;;;5.30;4.78;;;;;;;;;;5022410;28;20493;-72
2023/09/08 10:16:16;;;;;;;6.68;4.63;;;;;;;;;;5019506;28;20160;-70
2023/09/08 10:18:45;;;;;;;5.07;4.57;;;;;;;;;;5018128;28;20041;-69
2023/09/08 10:21:12;;;;;;;4.88;4.47;;;;;;;;;;5018232;28;20050;-69
2023/09/08 10:23:43;;;;;;;5.40;4.32;;;;;;;;;;5021993;28;20508;-69
2023/09/08 10:26:11;;;;;;;4.95;4.45;;;;;;;;;;5026260;28;20052;-69
2023/09/08 10:28:38;;;;;;;7.72;4.50;;;;;;;;;;5031120;28;20122;-69
2023/09/08 10:31:05;;;;;;;4.63;4.13;;;;;;;;;;5027948;28;20050;-72
2023/09/08 10:33:32;;;;;;;4.97;4.47;;;;;;;;;;5018518;28;20473;-70
2023/09/08 10:35:59;;;;;;;6.47;4.38;;;;;;;;;;5022475;28;20041;-70
2023/09/08 10:38:25;;;;;;;6.50;4.50;;;;;;;;;;5033937;28;20549;-69
2023/09/08 10:41:13;;;;;;;5.07;4.40;;;;;;;;;;5024353;28;20060;-70
2023/09/08 10:43:39;;;;;;;5.28;4.45;;;;;;;;;;4999631;28;20091;-70
2023/09/08 10:46:20;;;;;;;6.07;4.95;;;;;;;;;;5020961;28;20386;-70
2023/09/08 10:48:46;;;;;;;8.45;4.78;;;;;;;;;;5020932;28;20414;-69
2023/09/08 10:51:18;;;;;;;4.95;4.40;;;;;;;;;;5019194;28;20045;-69
2023/09/08 10:53:46;;;;;;;6.47;4.22;;;;;;;;;;5037320;28;20128;-70
2023/09/08 10:56:12;;;;;;;5.05;4.53;;;;;;;;;;5028552;28;20050;-69
2023/09/08 10:58:40;;;;;;;4.78;4.28;;;;;;;;;;5031699;28;20047;-71
2023/09/08 11:01:06;;;;;;;4.55;4.13;;;;;;;;;;5029263;28;20057;-72
2023/09/08 11:03:37;;;;;;;7.75;4.65;;;;;;;;;;5036974;28;20041;-73
2023/09/08 11:06:04;;;;;;;5.72;4.75;;;;;;;;;;5021899;28;20494;-72
2023/09/08 11:08:30;;;;;;;6.38;4.13;;;;;;;;;;5033233;28;20045;-72
2023/09/08 11:10:56;;;;;;;5.97;4.30;;;;;;;;;;5019043;28;20049;-69
2023/09/08 11:13:21;;;;;;;6.40;4.50;;;;;;;;;;5025285;28;20675;-72
2023/09/08 11:15:47;;;;;;;5.00;4.45;;;;;;;;;;5018475;28;20045;-70
2023/09/08 11:18:12;;;;;;;5.32;4.50;;;;;;;;;;5025604;28;20048;-69
2023/09/08 11:20:38;;;;;;;4.63;4.22;;;;;;;;;;5035012;28;20119;-71
2023/09/08 11:23:04;;;;;;;4.57;4.18;;;;;;;;;;5034772;28;20045;-73
2023/09/08 11:25:33;;;;;;;5.05;4.53;;;;;;;;;;5036870;28;20049;-71
2023/09/08 11:27:58;;;;;;;5.05;4.18;;;;;;;;;;5029032;28;20037;-70
2023/09/08 11:30:25;;;;;;;5.55;4.57;;;;;;;;;;5035876;28;20057;-71
2023/09/08 11:32:50;;;;;;;5.05;4.55;;;;;;;;;;5033646;28;20045;-70
2023/09/08 11:35:20;;;;;;;5.15;4.65;;;;;;;;;;5035651;28;20072;-71
2023/09/08 11:37:46;;;;;;;10.05;4.20;;;;;;;;;;5031527;28;20052;-71
2023/09/08 11:40:13;;;;;;;4.60;4.20;;;;;;;;;;5028109;28;20041;-68
2023/09/08 11:42:43;;;;;;;6.00;4.35;;;;;;;;;;5033873;28;21232;-70
2023/09/08 11:45:21;;;;;;;4.45;3.90;;;;;;;;;;5034030;28;20041;-71
2023/09/08 11:47:49;;;;;;;7.28;4.65;;;;;;;;;;5025598;28;20536;-70
2023/09/08 11:50:15;;;;;;;4.85;4.20;;;;;;;;;;5026356;28;20163;-70
2023/09/08 11:52:48;;;;;;;6.25;4.85;;;;;;;;;;5037507;28;20379;-69
2023/09/08 11:55:15;;;;;;;5.68;4.85;;;;;;;;;;5029385;28;20049;-68
2023/09/08 11:57:41;;;;;;;5.38;4.55;;;;;;;;;;5018800;28;20042;-71
2023/09/08 12:00:10;;;;;;;4.97;3.95;;;;;;;;;;5032155;28;20034;-69
2023/09/08 12:02:36;;;;;;;5.88;4.38;;;;;;;;;;5022316;28;20043;-69
2023/09/08 12:05:05;;;;;;;4.43;4.03;;;;;;;;;;5025566;28;20059;-69
2023/09/08 12:07:31;;;;;;;4.38;3.97;;;;;;;;;;5018821;28;20041;-69
2023/09/08 12:09:58;;;;;;;5.43;4.15;;;;;;;;;;5033360;28;20107;-69
2023/09/08 12:12:26;;;;;;;5.32;3.97;;;;;;;;;;5035253;28;20080;-69
2023/09/08 12:14:51;;;;;;;5.10;4.57;;;;;;;;;;5025929;28;20140;-69
2023/09/08 12:17:18;;;;;;;4.63;4.22;;;;;;;;;;5031824;28;20132;-69
2023/09/08 12:19:43;;;;;;;5.22;4.47;;;;;;;;;;5025861;28;20045;-69
2023/09/08 12:22:11;;;;;;;4.90;4.40;;;;;;;;;;5019665;28;20048;-69
2023/09/08 12:25:08;;;;;;;6.72;4.50;;;;;;;;;;5023286;28;20072;-70
2023/09/08 12:27:37;;;;;;;5.63;4.00;;;;;;;;;;5013473;28;20102;-70
2023/09/08 12:30:04;;;;;;;8.45;4.40;;;;;;;;;;5025773;28;20191;-69
2023/09/08 12:32:31;;;;;;;4.60;4.05;;;;;;;;;;5025240;28;20053;-69
2023/09/08 12:34:58;;;;;;;4.25;3.85;;;;;;;;;;5034055;28;20502;-68
2023/09/08 12:37:27;;;;;;;4.50;3.92;;;;;;;;;;5023273;28;20060;-68
2023/09/08 12:39:53;;;;;;;4.32;3.92;;;;;;;;;;5023125;28;20132;-69
2023/09/08 12:42:19;;;;;;;5.75;4.25;;;;;;;;;;5024985;28;20136;-69
2023/09/08 12:44:44;;;;;;;4.85;3.95;;;;;;;;;;5033321;28;20599;-71
2023/09/08 12:47:12;;;;;;;4.40;4.00;;;;;;;;;;5027022;28;20048;-71
2023/09/08 12:49:37;;;;;;;5.82;4.47;;;;;;;;;;5047773;28;20045;-70
2023/09/08 12:52:03;;;;;;;4.88;4.18;;;;;;;;;;5037689;28;20103;-71
2023/09/08 12:54:28;;;;;;;5.55;4.10;;;;;;;;;;5027391;28;20053;-71
2023/09/08 12:56:54;;;;;;;7.20;4.10;;;;;;;;;;5024034;28;20833;-71
2023/09/08 12:59:19;;;;;;;4.97;3.97;;;;;;;;;;5034968;28;20076;-71
2023/09/08 13:01:46;;;;;;;5.32;4.25;;;;;;;;;;5018541;28;20054;-71
2023/09/08 13:04:11;;;;;;;4.70;4.20;;;;;;;;;;5018909;28;21048;-71
2023/09/08 13:06:37;;;;;;;5.03;4.22;;;;;;;;;;5025462;28;20136;-71
2023/09/08 13:09:02;;;;;;;5.60;3.90;;;;;;;;;;5017682;28;20057;-68
2023/09/08 13:11:28;;;;;;;6.43;4.40;;;;;;;;;;5027796;28;20474;-71
2023/09/08 13:13:53;;;;;;;5.28;4.38;;;;;;;;;;5027121;28;20080;-71
2023/09/08 13:16:19;;;;;;;4.40;4.00;;;;;;;;;;5021126;28;20970;-71
2023/09/08 13:18:45;;;;;;;4.75;4.05;;;;;;;;;;5026374;28;20053;-71
2023/09/08 13:21:11;;;;;;;4.47;4.07;;;;;;;;;;5023956;28;20041;-70
2023/09/08 13:23:36;;;;;;;6.00;4.03;;;;;;;;;;5032320;28;20052;-71
2023/09/08 13:26:02;;;;;;;7.88;4.47;;;;;;;;;;5017462;28;20434;-71
2023/09/08 13:28:27;;;;;;;5.68;4.28;;;;;;;;;;5024288;28;20049;-70
2023/09/08 13:30:53;;;;;;;4.68;4.15;;;;;;;;;;5020431;28;20044;-70
2023/09/08 13:33:18;;;;;;;4.30;3.90;;;;;;;;;;5022736;28;20041;-71
2023/09/08 13:35:44;;;;;;;5.03;4.30;;;;;;;;;;5021760;28;20404;-71
2023/09/08 13:38:09;;;;;;;6.63;4.32;;;;;;;;;;5030374;28;20044;-71
2023/09/08 13:40:34;;;;;;;4.60;4.18;;;;;;;;;;5017733;28;20041;-71
2023/09/08 13:43:00;;;;;;;4.63;4.13;;;;;;;;;;5019169;28;20064;-71
2023/09/08 13:45:26;;;;;;;8.02;5.00;;;;;;;;;;5024552;28;20052;-71
2023/09/08 13:47:51;;;;;;;7.03;4.30;;;;;;;;;;5019674;28;20044;-71
2023/09/08 13:50:17;;;;;;;6.57;4.43;;;;;;;;;;5016715;28;20613;-71
2023/09/08 13:52:43;;;;;;;4.38;3.97;;;;;;;;;;5021512;28;20937;-71
2023/09/08 13:55:09;;;;;;;5.60;4.30;;;;;;;;;;5028232;28;20045;-71
2023/09/08 13:57:35;;;;;;;7.30;4.10;;;;;;;;;;5017963;28;20033;-71
2023/09/08 14:00:00;;;;;;;6.03;4.80;;;;;;;;;;5037477;28;20587;-72
2023/09/08 14:02:26;;;;;;;4.68;4.22;;;;;;;;;;5019801;28;20041;-71
2023/09/08 14:04:51;;;;;;;7.50;4.47;;;;;;;;;;5027106;28;20421;-71
2023/09/08 14:07:16;;;;;;;7.97;4.03;;;;;;;;;;5017376;28;20060;-71
2023/09/08 14:09:42;;;;;;;5.28;4.35;;;;;;;;;;5032123;28;20528;-71
2023/09/08 14:12:08;;;;;;;9.25;4.60;;;;;;;;;;5023412;28;20049;-70
2023/09/08 14:14:33;;;;;;;4.88;4.38;;;;;;;;;;5018050;28;21977;-71
2023/09/08 14:16:59;;;;;;;7.68;4.65;;;;;;;;;;5017859;28;20038;-70
2023/09/08 14:19:24;;;;;;;9.98;4.55;;;;;;;;;;5021219;28;20065;-70
2023/09/08 14:21:50;;;;;;;7.10;4.65;;;;;;;;;;5027297;28;20079;-70
2023/09/08 14:24:15;;;;;;;6.68;4.40;;;;;;;;;;5025701;28;20071;-70
2023/09/08 14:26:40;;;;;;;7.80;4.60;;;;;;;;;;5018139;28;20042;-71
2023/09/08 14:29:06;;;;;;;8.27;4.93;;;;;;;;;;5019723;28;20137;-70
2023/09/08 14:31:31;;;;;;;6.53;4.70;;;;;;;;;;5016985;28;20056;-71
2023/09/08 14:33:57;;;;;;;5.18;4.60;;;;;;;;;;5016979;28;20442;-71
2023/09/08 14:36:24;;;;;;;7.65;4.85;;;;;;;;;;5031191;28;20102;-68
2023/09/08 14:38:49;;;;;;;7.63;4.38;;;;;;;;;;5033874;28;20047;-69
2023/09/08 14:41:15;;;;;;;5.80;4.43;;;;;;;;;;5023960;28;20049;-69